Aérodrome :







RETROUVEZ-NOUS SUR...

 
LOGIN :

S'inscrire | Disclaimer

   EN    FR    IT 

 









Légende :    VFR   VFR Marginal   IFR   IFR Intensif   IFR Très Intensif
Visi : 
Plafond : 
>= 8 km
>= 3000ft
5 à 8 km
1000 à 3000 ft
1500m à 5 km
500 à 1000 ft
800 à 1500m
200 à 500 ft
< 800m
< 200 ft
Symboles :   Orages  Brouillard  Fortes neiges  Fortes précipitations  Vent > 20 kt






- Altitude de l'aérodrome : 215 ft
- Code IATA : XGR


CYLU - Kangiqsualujjuaq (Georges River)

DERNIER METAR :
  • 122200Z 28013G22KT 2 1/2SM -SN DRSN FEW012 SCT016 OVC024 M08/M10 A2997 RMK ST1SC2SC5 LAST OBS/NEXT 131300UTC SNW CVR/MUCH LOOSE SLP156

METARs EXPIRÉS :
  • 122100Z 28013G20KT 4SM -SN DRSN BKN018 OVC024 M07/M11 A2996 RMK SC5SC3 SLP154

TAF N/A



MET'MAP, la Météo Aéronautique d'un coup d'oeil ! - Copyright ORBIFLY Décembre 2007 - Disclaimer

ORBIFLY MET'MAP TEAM :

Programmation & Développement : Alexandra Zaïnal
Conception & Développement : Baudouin d'Aumeries
Co-Programmation & Développement : Marc-Olivier Méhu
Soutien technique & logistique : Manuel Goepfert

Contact : metmap@orbifly.com




SOURCES & CREDITS :

   NOAA